Time;durP1;ratioP1;P1;durP2;ratioP2;P2;SDS_P1;SDS_P2;PMS_P1;PMS_P2;Temp;Humidity;BMP_temperature;BMP_pressure;BME280_temperature;BME280_humidity;BME280_pressure;Samples;Min_cycle;Max_cycle;Signal;HPM_P1;HPM_P2
2021/05/22 00:00:25;;;;;;;4.22;3.08;;;10.90;67.90;;;;;;4975365;28;20042;-88
2021/05/22 00:02:51;;;;;;;4.40;2.97;;;10.90;67.80;;;;;;4976044;28;20039;-88
2021/05/22 00:05:17;;;;;;;4.47;3.00;;;10.90;67.90;;;;;;4978594;28;20031;-88
2021/05/22 00:07:43;;;;;;;4.22;2.88;;;10.90;67.70;;;;;;4978726;28;20027;-87
2021/05/22 00:10:11;;;;;;;4.45;2.97;;;10.90;67.80;;;;;;4979796;28;20058;-88
2021/05/22 00:12:41;;;;;;;4.45;3.10;;;10.90;68.00;;;;;;4974662;28;20114;-88
2021/05/22 00:15:09;;;;;;;3.83;2.72;;;10.80;68.10;;;;;;4973557;28;20031;-89
2021/05/22 00:17:34;;;;;;;5.43;3.10;;;10.80;68.10;;;;;;4975479;28;20097;-88
2021/05/22 00:20:00;;;;;;;4.68;2.88;;;10.70;68.30;;;;;;4977808;28;20027;-90
2021/05/22 00:22:27;;;;;;;4.07;3.10;;;10.70;68.60;;;;;;4978925;28;20454;-88
2021/05/22 00:24:53;;;;;;;5.70;3.53;;;10.70;68.70;;;;;;4978440;28;20023;-91
2021/05/22 00:27:18;;;;;;;5.78;3.67;;;10.70;68.90;;;;;;4976916;28;20381;-88
2021/05/22 00:29:44;;;;;;;5.25;3.70;;;10.70;68.80;;;;;;4978544;28;20122;-88
2021/05/22 00:32:10;;;;;;;6.03;3.78;;;10.70;69.10;;;;;;4976824;28;20481;-90
2021/05/22 00:34:36;;;;;;;6.38;3.50;;;10.70;69.40;;;;;;4978076;28;20429;-88
2021/05/22 00:37:01;;;;;;;5.07;3.45;;;10.70;69.30;;;;;;4976916;28;20058;-88
2021/05/22 00:39:27;;;;;;;4.80;3.40;;;10.70;69.60;;;;;;4976752;28;20081;-88
2021/05/22 00:41:53;;;;;;;3.72;3.00;;;10.70;69.90;;;;;;4977829;28;20450;-89
2021/05/22 00:44:19;;;;;;;5.97;3.40;;;10.70;69.90;;;;;;4992650;28;20465;-88
2021/05/22 00:46:45;;;;;;;5.63;3.63;;;10.70;70.30;;;;;;4976699;28;20038;-88
2021/05/22 00:49:11;;;;;;;6.03;3.88;;;10.70;70.80;;;;;;4976726;28;20062;-88
2021/05/22 00:51:38;;;;;;;7.60;4.00;;;10.70;70.40;;;;;;4976643;28;20516;-88
2021/05/22 00:54:05;;;;;;;5.55;3.72;;;10.70;70.80;;;;;;4976721;28;20105;-88
2021/05/22 00:56:31;;;;;;;4.90;3.55;;;10.70;70.60;;;;;;4977410;28;20026;-88
2021/05/22 00:58:56;;;;;;;7.80;3.92;;;10.70;70.50;;;;;;4976501;28;20524;-89
2021/05/22 01:01:22;;;;;;;6.70;4.53;;;10.60;71.10;;;;;;4976081;28;20130;-88
2021/05/22 01:03:54;;;;;;;6.82;4.40;;;10.50;71.50;;;;;;4977584;28;20030;-87
2021/05/22 01:06:32;;;;;;;6.97;4.32;;;10.50;72.00;;;;;;4976217;28;20043;-88
2021/05/22 01:09:09;;;;;;;7.22;4.53;;;10.40;72.90;;;;;;4977640;28;20134;-87
2021/05/22 01:11:49;;;;;;;6.85;4.78;;;10.40;73.00;;;;;;4977304;28;20035;-88
2021/05/22 01:14:24;;;;;;;6.35;4.18;;;10.30;72.80;;;;;;4977482;28;20485;-88
2021/05/22 01:16:52;;;;;;;6.45;4.22;;;10.30;73.50;;;;;;4975951;28;20042;-88
2021/05/22 01:19:40;;;;;;;5.68;3.97;;;10.30;72.50;;;;;;4977278;28;20081;-87
2021/05/22 01:22:06;;;;;;;6.55;4.35;;;10.20;74.50;;;;;;4977666;28;20518;-87
2021/05/22 01:24:37;;;;;;;7.70;5.20;;;10.10;72.80;;;;;;4993136;28;20053;-89
2021/05/22 01:27:03;;;;;;;9.25;5.22;;;10.10;73.60;;;;;;4994232;28;20117;-85
2021/05/22 01:29:31;;;;;;;8.20;5.13;;;10.10;73.70;;;;;;4989495;28;20027;-84
2021/05/22 01:31:57;;;;;;;8.32;6.00;;;10.10;74.30;;;;;;4990590;28;20035;-84
2021/05/22 01:34:22;;;;;;;8.82;5.50;;;10.00;74.80;;;;;;4988413;28;20165;-84
2021/05/22 01:36:50;;;;;;;9.88;6.30;;;10.00;74.60;;;;;;4979004;28;20385;-87
2021/05/22 01:39:17;;;;;;;8.60;5.90;;;10.00;74.80;;;;;;4977422;28;20066;-89
2021/05/22 01:41:43;;;;;;;7.93;5.45;;;10.00;74.80;;;;;;4976882;28;20038;-88
2021/05/22 01:44:11;;;;;;;7.32;5.15;;;10.00;74.60;;;;;;4976968;28;20031;-87
2021/05/22 01:46:40;;;;;;;8.73;5.38;;;10.00;74.50;;;;;;4975955;28;20037;-87
2021/05/22 01:49:06;;;;;;;7.10;5.03;;;10.10;74.60;;;;;;4976930;28;20029;-88
2021/05/22 01:51:32;;;;;;;7.32;4.90;;;10.00;74.60;;;;;;4976478;28;20027;-87
2021/05/22 01:53:58;;;;;;;7.82;4.80;;;10.00;74.40;;;;;;4975321;28;20027;-87
2021/05/22 01:56:24;;;;;;;7.82;4.75;;;10.00;74.40;;;;;;4976447;28;20039;-88
2021/05/22 01:58:50;;;;;;;7.40;4.97;;;9.90;74.50;;;;;;4975772;28;20035;-89
2021/05/22 02:01:16;;;;;;;7.43;4.90;;;9.80;74.50;;;;;;4976559;28;20536;-88
2021/05/22 02:03:47;;;;;;;6.57;4.82;;;9.80;74.80;;;;;;4975243;28;20121;-88
2021/05/22 02:06:18;;;;;;;6.65;4.75;;;9.80;74.90;;;;;;4976442;28;20063;-88
2021/05/22 02:08:46;;;;;;;6.93;4.70;;;9.70;75.10;;;;;;4976751;28;20054;-90
2021/05/22 02:11:13;;;;;;;8.48;5.13;;;9.60;75.20;;;;;;4976381;28;20034;-89
2021/05/22 02:13:41;;;;;;;7.30;5.10;;;9.50;75.60;;;;;;4976674;28;20231;-89
2021/05/22 02:16:08;;;;;;;7.88;5.40;;;9.50;75.80;;;;;;4974676;28;20058;-89
2021/05/22 02:18:35;;;;;;;7.78;4.93;;;9.40;76.10;;;;;;4976177;28;20472;-88
2021/05/22 02:21:03;;;;;;;7.43;4.82;;;9.40;76.30;;;;;;4975054;28;20023;-88
2021/05/22 02:23:32;;;;;;;7.10;4.75;;;9.40;76.30;;;;;;4976146;28;20027;-89
2021/05/22 02:26:00;;;;;;;6.05;4.22;;;9.40;76.50;;;;;;4974998;28;20512;-90
2021/05/22 02:28:32;;;;;;;6.38;4.57;;;9.40;76.30;;;;;;4976029;28;20045;-89
2021/05/22 02:30:59;;;;;;;7.03;4.35;;;9.40;77.00;;;;;;4970540;28;20080;-87
2021/05/22 02:33:26;;;;;;;6.97;4.88;;;9.40;76.30;;;;;;4977625;28;20038;-89
2021/05/22 02:35:54;;;;;;;8.48;5.60;;;9.50;77.00;;;;;;4975416;28;20386;-89
2021/05/22 02:38:28;;;;;;;8.02;5.15;;;9.50;76.90;;;;;;4975601;28;20423;-91
2021/05/22 02:40:59;;;;;;;7.55;5.00;;;9.50;77.50;;;;;;4974466;28;20030;-90
2021/05/22 02:43:27;;;;;;;6.57;4.70;;;9.50;77.50;;;;;;4974729;28;20031;-89
2021/05/22 02:45:55;;;;;;;7.78;4.07;;;9.50;77.30;;;;;;4974435;28;20062;-90
2021/05/22 02:48:22;;;;;;;5.47;3.70;;;9.60;77.00;;;;;;4977844;28;20033;-89
2021/05/22 02:50:49;;;;;;;4.47;3.40;;;9.60;76.90;;;;;;4974810;28;20031;-89
2021/05/22 02:53:21;;;;;;;5.75;3.42;;;9.70;76.90;;;;;;4974767;28;20432;-89
2021/05/22 02:55:48;;;;;;;5.47;3.70;;;9.70;77.00;;;;;;4974476;28;20045;-89
2021/05/22 02:58:16;;;;;;;4.45;3.40;;;9.70;76.90;;;;;;4975500;28;20027;-88
2021/05/22 03:00:43;;;;;;;4.40;3.17;;;9.80;76.70;;;;;;4975723;28;20023;-89
2021/05/22 03:03:09;;;;;;;3.95;2.97;;;9.90;76.70;;;;;;4974621;28;20038;-88
2021/05/22 03:05:35;;;;;;;4.88;3.20;;;9.90;76.70;;;;;;4975211;28;20026;-89
2021/05/22 03:08:02;;;;;;;4.30;3.15;;;10.00;76.70;;;;;;4975461;28;20138;-89
2021/05/22 03:10:28;;;;;;;6.35;3.70;;;10.10;76.60;;;;;;4977526;28;20043;-90
2021/05/22 03:12:54;;;;;;;4.30;2.97;;;10.20;76.70;;;;;;4973811;28;20027;-90
2021/05/22 03:15:20;;;;;;;6.90;3.25;;;10.20;76.40;;;;;;4974098;28;20042;-90
2021/05/22 03:17:46;;;;;;;5.25;3.70;;;10.30;76.40;;;;;;4975252;28;20039;-87
2021/05/22 03:20:11;;;;;;;7.18;3.58;;;10.30;76.40;;;;;;4975107;28;20053;-89
2021/05/22 03:22:38;;;;;;;5.18;3.65;;;10.40;76.40;;;;;;4974028;28;20062;-90
2021/05/22 03:25:05;;;;;;;5.85;3.80;;;10.40;76.40;;;;;;4975021;28;20054;-86
2021/05/22 03:27:32;;;;;;;4.85;3.50;;;10.40;76.40;;;;;;4973804;28;20393;-87
2021/05/22 03:29:58;;;;;;;5.20;3.55;;;10.40;76.50;;;;;;4973653;28;20031;-87
2021/05/22 03:32:24;;;;;;;5.50;3.67;;;10.40;76.70;;;;;;4974002;28;20450;-88
2021/05/22 03:34:50;;;;;;;4.90;3.42;;;10.40;76.70;;;;;;4975149;28;20058;-87
2021/05/22 03:37:16;;;;;;;6.32;3.17;;;10.50;76.90;;;;;;4975369;28;20425;-87
2021/05/22 03:39:42;;;;;;;4.95;3.25;;;10.60;76.60;;;;;;4993109;28;20042;-87
2021/05/22 03:42:08;;;;;;;5.40;2.90;;;10.60;76.50;;;;;;4994278;28;20038;-87
2021/05/22 03:44:34;;;;;;;4.70;3.03;;;10.70;76.40;;;;;;4992863;28;20026;-87
2021/05/22 03:47:01;;;;;;;5.20;2.97;;;10.70;76.40;;;;;;4994313;28;20042;-88
2021/05/22 03:49:29;;;;;;;4.97;2.80;;;10.80;76.10;;;;;;4992999;28;20030;-88
2021/05/22 03:51:56;;;;;;;3.80;2.75;;;10.90;75.80;;;;;;4994311;28;20033;-88
2021/05/22 03:54:22;;;;;;;4.95;3.05;;;11.00;75.70;;;;;;4997022;28;20515;-88
2021/05/22 03:56:48;;;;;;;3.85;2.80;;;11.10;75.70;;;;;;4998273;28;20026;-88
2021/05/22 03:59:15;;;;;;;3.55;2.67;;;11.20;75.70;;;;;;4998781;28;20033;-88
2021/05/22 04:01:49;;;;;;;4.65;3.10;;;11.30;75.60;;;;;;5001601;28;20026;-87
2021/05/22 04:04:14;;;;;;;5.03;3.03;;;11.40;75.50;;;;;;4997086;28;20456;-89
2021/05/22 04:06:40;;;;;;;3.90;2.70;;;11.50;75.40;;;;;;5001860;28;20034;-90
2021/05/22 04:09:11;;;;;;;3.88;2.78;;;11.70;75.20;;;;;;5001666;28;20072;-92
2021/05/22 04:11:36;;;;;;;5.68;3.00;;;11.70;75.10;;;;;;5002468;28;20033;-93
2021/05/22 04:14:04;;;;;;;4.07;2.75;;;11.80;74.70;;;;;;4999260;28;20038;-91
2021/05/22 04:16:30;;;;;;;4.85;3.28;;;11.90;74.70;;;;;;4997911;28;20031;-93
2021/05/22 04:18:56;;;;;;;4.68;2.97;;;12.00;74.60;;;;;;4997260;28;20204;-92
2021/05/22 04:21:23;;;;;;;3.83;2.78;;;12.10;74.50;;;;;;4998351;28;20080;-92
2021/05/22 04:23:49;;;;;;;4.82;2.67;;;12.10;74.30;;;;;;4997265;28;20034;-92
2021/05/22 04:26:18;;;;;;;3.80;2.80;;;12.20;74.10;;;;;;4998315;28;20497;-91
2021/05/22 04:28:44;;;;;;;3.80;2.70;;;12.30;73.90;;;;;;4998127;28;20109;-90
2021/05/22 04:31:09;;;;;;;3.80;2.70;;;12.30;73.80;;;;;;4996739;28;20091;-89
2021/05/22 04:33:38;;;;;;;4.45;2.88;;;12.50;73.80;;;;;;4998377;28;20429;-90
2021/05/22 04:36:04;;;;;;;4.15;2.63;;;12.60;73.80;;;;;;4995950;28;20076;-91
2021/05/22 04:38:30;;;;;;;3.35;2.67;;;12.70;73.60;;;;;;4997529;28;20125;-89
2021/05/22 04:40:55;;;;;;;4.85;2.88;;;12.80;73.50;;;;;;4999134;28;20111;-89
2021/05/22 04:43:21;;;;;;;4.00;2.78;;;12.90;73.40;;;;;;4998642;28;20034;-90
2021/05/22 04:45:47;;;;;;;3.58;2.38;;;13.00;73.20;;;;;;5000001;28;20045;-88
2021/05/22 04:48:12;;;;;;;3.22;2.45;;;13.10;72.90;;;;;;4995711;28;20037;-91
2021/05/22 04:50:39;;;;;;;4.95;2.85;;;13.20;72.80;;;;;;4996390;28;20041;-90
2021/05/22 04:53:04;;;;;;;3.33;2.45;;;13.30;72.50;;;;;;4998116;28;20027;-89
2021/05/22 04:55:30;;;;;;;4.47;2.80;;;13.50;72.30;;;;;;4998415;28;20105;-90
2021/05/22 04:57:56;;;;;;;6.55;2.75;;;13.60;72.00;;;;;;4997255;28;20034;-89
2021/05/22 05:00:24;;;;;;;4.13;2.55;;;13.70;71.60;;;;;;4999814;28;20065;-90
2021/05/22 05:02:54;;;;;;;3.42;2.45;;;13.80;71.20;;;;;;4996626;28;20380;-87
2021/05/22 05:05:20;;;;;;;3.75;2.65;;;14.00;70.80;;;;;;4998139;28;20507;-89
2021/05/22 05:07:46;;;;;;;3.75;2.58;;;14.10;70.50;;;;;;4997303;28;20035;-90
2021/05/22 05:10:12;;;;;;;5.18;3.03;;;14.20;70.20;;;;;;4995457;28;20058;-88
2021/05/22 05:12:39;;;;;;;4.25;2.92;;;14.30;69.80;;;;;;4997989;28;20049;-87
2021/05/22 05:15:05;;;;;;;5.20;2.83;;;14.50;69.50;;;;;;4995698;28;20026;-91
2021/05/22 05:17:34;;;;;;;3.75;2.67;;;14.60;69.20;;;;;;4996318;28;20196;-88
2021/05/22 05:20:00;;;;;;;3.80;2.50;;;14.70;68.90;;;;;;5004762;28;20034;-90
2021/05/22 05:22:27;;;;;;;3.42;2.53;;;14.90;68.70;;;;;;5001568;28;20030;-89
2021/05/22 05:24:53;;;;;;;3.13;2.55;;;15.00;68.40;;;;;;4994804;28;20030;-89
2021/05/22 05:27:19;;;;;;;3.10;2.22;;;15.10;68.10;;;;;;4995547;28;20041;-87
2021/05/22 05:29:45;;;;;;;3.08;2.10;;;15.30;67.60;;;;;;4995308;28;20026;-88
2021/05/22 05:32:11;;;;;;;3.40;2.33;;;15.40;67.20;;;;;;4995289;28;20438;-87
2021/05/22 05:34:41;;;;;;;4.43;2.60;;;15.60;66.70;;;;;;4995078;28;20488;-88
2021/05/22 05:37:09;;;;;;;3.45;2.33;;;15.70;66.20;;;;;;4995089;28;20042;-87
2021/05/22 05:39:35;;;;;;;3.70;2.10;;;15.80;66.00;;;;;;4995448;28;20026;-87
2021/05/22 05:42:01;;;;;;;3.13;2.28;;;16.00;65.70;;;;;;4995945;28;20376;-87
2021/05/22 05:44:27;;;;;;;3.92;2.42;;;16.10;65.60;;;;;;4996272;28;20503;-86
2021/05/22 05:46:53;;;;;;;2.72;2.30;;;16.20;65.20;;;;;;4996735;28;20031;-85
2021/05/22 05:49:18;;;;;;;4.20;2.33;;;16.40;64.90;;;;;;4996792;28;20026;-84
2021/05/22 05:51:44;;;;;;;4.80;2.40;;;16.50;64.60;;;;;;4997644;28;20049;-84
2021/05/22 05:54:10;;;;;;;4.07;2.22;;;16.60;64.30;;;;;;4996321;28;20022;-84
2021/05/22 05:56:35;;;;;;;3.40;2.40;;;16.70;63.80;;;;;;4995350;28;20084;-84
2021/05/22 05:59:01;;;;;;;4.35;3.10;;;16.90;63.40;;;;;;4997784;28;20046;-81
2021/05/22 06:01:27;;;;;;;4.13;2.75;;;17.00;63.00;;;;;;4995587;28;20030;-85
2021/05/22 06:03:52;;;;;;;6.53;3.63;;;17.10;62.70;;;;;;4996074;28;20413;-87
2021/05/22 06:06:20;;;;;;;5.78;4.00;;;17.20;62.30;;;;;;4995635;28;20026;-85
2021/05/22 06:08:46;;;;;;;6.25;4.30;;;17.30;62.00;;;;;;4996133;28;20127;-86
2021/05/22 06:11:14;;;;;;;7.20;4.20;;;17.50;61.50;;;;;;4996342;28;20066;-88
2021/05/22 06:13:41;;;;;;;7.80;4.65;;;17.60;61.00;;;;;;4994628;28;20113;-86
2021/05/22 06:18:37;;;;;;;16.17;6.72;;;17.70;59.80;;;;;;4997737;28;20038;-93
2021/05/22 06:21:08;;;;;;;14.38;5.38;;;17.90;59.30;;;;;;4997348;28;20115;-91
2021/05/22 06:23:34;;;;;;;;;;;17.90;58.80;;;;;;4996928;28;20026;-90
2021/05/22 06:26:00;;;;;;;13.48;5.07;;;18.00;57.10;;;;;;4995256;28;19906;-92
2021/05/22 06:28:27;;;;;;;11.25;4.72;;;18.10;58.30;;;;;;4994943;28;20029;-90
2021/05/22 06:30:55;;;;;;;7.55;3.88;;;18.20;57.80;;;;;;4996229;28;20027;-90
2021/05/22 06:33:21;;;;;;;7.03;3.17;;;18.30;57.40;;;;;;4998511;28;20042;-91
2021/05/22 06:35:47;;;;;;;4.07;2.53;;;18.40;56.90;;;;;;4994302;28;20469;-82
2021/05/22 06:38:12;;;;;;;4.53;2.33;;;18.50;55.80;;;;;;4995893;28;20041;-89
2021/05/22 06:40:38;;;;;;;4.65;2.60;;;18.60;55.30;;;;;;4995218;28;20028;-83
2021/05/22 06:43:04;;;;;;;5.90;2.88;;;18.70;54.90;;;;;;4993730;28;20026;-86
2021/05/22 06:45:39;;;;;;;16.77;6.38;;;18.70;54.90;;;;;;4995341;28;20422;-86
2021/05/22 06:48:12;;;;;;;13.25;5.25;;;18.80;54.40;;;;;;4995152;28;20023;-86
2021/05/22 06:50:38;;;;;;;22.38;9.90;;;18.90;53.60;;;;;;4994652;28;20033;-89
2021/05/22 06:53:05;;;;;;;21.05;9.35;;;18.90;53.60;;;;;;4992940;28;20471;-89
2021/05/22 06:55:31;;;;;;;24.98;9.90;;;19.00;53.30;;;;;;4994038;28;20473;-88
2021/05/22 06:57:57;;;;;;;18.55;8.65;;;19.10;53.30;;;;;;4993690;28;20101;-88
2021/05/22 07:00:23;;;;;;;14.77;7.20;;;19.20;52.90;;;;;;4992710;28;20026;-87
2021/05/22 07:02:49;;;;;;;15.93;7.00;;;19.30;52.70;;;;;;4993980;28;20065;-87
2021/05/22 07:05:15;;;;;;;13.20;6.30;;;19.40;51.50;;;;;;4994130;28;20053;-89
2021/05/22 07:07:42;;;;;;;11.85;5.32;;;19.50;51.50;;;;;;4993819;28;20034;-89
2021/05/22 07:10:09;;;;;;;8.70;4.72;;;19.60;51.00;;;;;;4992542;28;20070;-90
2021/05/22 07:12:35;;;;;;;9.07;4.32;;;19.70;51.00;;;;;;4993798;28;20759;-89
2021/05/22 07:15:00;;;;;;;6.60;3.78;;;19.70;50.70;;;;;;4992981;28;20025;-88
2021/05/22 07:17:26;;;;;;;7.50;3.47;;;19.80;50.40;;;;;;4994232;28;20026;-91
2021/05/22 07:19:52;;;;;;;8.45;4.13;;;19.90;50.40;;;;;;4993985;28;20042;-88
2021/05/22 07:22:18;;;;;;;7.53;3.70;;;20.00;49.70;;;;;;4993301;28;20014;-91
2021/05/22 07:24:43;;;;;;;5.78;2.65;;;20.10;49.50;;;;;;4989363;28;20026;-89
2021/05/22 07:27:09;;;;;;;8.00;3.13;;;20.30;49.10;;;;;;4992781;28;20053;-87
2021/05/22 07:29:35;;;;;;;5.15;2.60;;;20.30;48.30;;;;;;4993445;28;20056;-88
2021/05/22 07:32:00;;;;;;;6.82;2.90;;;20.40;48.20;;;;;;4993571;28;20404;-89
2021/05/22 07:34:26;;;;;;;9.52;3.85;;;20.40;48.00;;;;;;4993620;28;20085;-88
2021/05/22 07:36:52;;;;;;;5.80;3.15;;;20.60;47.50;;;;;;4992539;28;20495;-90
2021/05/22 07:39:18;;;;;;;6.50;2.90;;;20.70;47.60;;;;;;4996335;28;20037;-90
2021/05/22 07:41:46;;;;;;;5.90;2.70;;;20.90;47.60;;;;;;4994322;28;20018;-87
2021/05/22 07:44:14;;;;;;;6.22;3.05;;;20.90;47.30;;;;;;4994439;28;20029;-89
2021/05/22 07:46:40;;;;;;;6.97;3.28;;;21.10;47.00;;;;;;4997929;28;20022;-85
2021/05/22 07:49:06;;;;;;;5.45;2.80;;;21.20;47.40;;;;;;5000470;28;20491;-85
2021/05/22 07:51:32;;;;;;;5.35;2.80;;;21.30;47.10;;;;;;4998294;28;20342;-87
2021/05/22 07:53:57;;;;;;;8.15;3.20;;;21.40;46.60;;;;;;4996050;28;20404;-94
2021/05/22 07:56:23;;;;;;;5.50;3.00;;;21.50;46.50;;;;;;4995014;28;20038;-90
2021/05/22 07:59:11;;;;;;;6.88;3.53;;;21.60;46.40;;;;;;4994944;28;20523;-90
2021/05/22 08:01:37;;;;;;;5.95;2.90;;;21.70;46.50;;;;;;4992768;28;20408;-87
2021/05/22 08:04:03;;;;;;;7.25;3.28;;;21.80;46.70;;;;;;4994194;28;20057;-86
2021/05/22 08:06:29;;;;;;;7.07;3.33;;;21.90;46.60;;;;;;4994002;28;20080;-91
2021/05/22 08:08:55;;;;;;;5.38;3.15;;;22.10;46.90;;;;;;4995204;28;20054;-87
2021/05/22 08:11:20;;;;;;;5.13;3.03;;;22.40;48.00;;;;;;4996718;28;20377;-93
2021/05/22 08:13:54;;;;;;;7.15;3.00;;;22.80;48.00;;;;;;4994602;28;20026;-87
2021/05/22 08:16:24;;;;;;;5.25;2.45;;;23.10;48.10;;;;;;4992623;28;20042;-87
2021/05/22 08:18:50;;;;;;;5.13;2.78;;;23.60;48.50;;;;;;4990475;28;20591;-88
2021/05/22 08:21:18;;;;;;;5.85;2.65;;;24.00;48.20;;;;;;4991802;28;20035;-88
2021/05/22 08:23:43;;;;;;;6.47;3.00;;;24.40;47.70;;;;;;4992276;28;20022;-88
2021/05/22 08:26:09;;;;;;;3.42;2.28;;;24.90;47.40;;;;;;4992035;28;20038;-87
2021/05/22 08:28:38;;;;;;;4.10;2.17;;;25.20;47.10;;;;;;4990494;28;20536;-88
2021/05/22 08:31:04;;;;;;;4.70;1.98;;;25.50;46.60;;;;;;4990641;28;20031;-88
2021/05/22 08:33:30;;;;;;;3.85;1.98;;;25.80;46.50;;;;;;5011915;28;20044;-88
2021/05/22 08:35:56;;;;;;;9.73;1.65;;;26.00;45.80;;;;;;4995189;28;20388;-87
2021/05/22 08:38:25;;;;;;;1.20;1.10;;;26.30;45.50;;;;;;4995835;28;20510;-87
2021/05/22 08:40:55;;;;;;;1.67;1.48;;;26.50;45.50;;;;;;4996614;28;20161;-87
2021/05/22 08:43:24;;;;;;;1.50;1.40;;;26.70;44.80;;;;;;4997939;28;20080;-86
2021/05/22 08:45:50;;;;;;;1.67;1.30;;;27.00;43.40;;;;;;4996380;28;20113;-87
2021/05/22 08:48:16;;;;;;;2.05;1.58;;;27.10;44.20;;;;;;4996599;28;20057;-87
2021/05/22 08:50:42;;;;;;;2.28;1.70;;;27.20;42.60;;;;;;4996600;28;20027;-88
2021/05/22 08:53:08;;;;;;;1.52;1.40;;;27.40;42.30;;;;;;4997519;28;20025;-87
2021/05/22 08:55:37;;;;;;;2.10;1.52;;;27.50;42.20;;;;;;4996018;28;20038;-88
2021/05/22 08:58:05;;;;;;;2.03;1.50;;;27.70;41.40;;;;;;4997857;28;20030;-88
2021/05/22 09:00:38;;;;;;;2.65;1.30;;;27.90;40.80;;;;;;4997693;28;20034;-90
2021/05/22 09:03:08;;;;;;;2.58;1.38;;;28.00;40.40;;;;;;4997132;28;20049;-88
2021/05/22 09:05:34;;;;;;;1.30;1.10;;;28.20;39.90;;;;;;4997806;28;20026;-88
2021/05/22 09:08:06;;;;;;;1.27;1.05;;;28.40;40.00;;;;;;4984775;28;20104;-88
2021/05/22 09:10:40;;;;;;;1.10;1.00;;;28.60;39.30;;;;;;5000157;28;20046;-89
2021/05/22 09:13:12;;;;;;;1.92;1.60;;;28.80;38.70;;;;;;5000322;28;20090;-88
2021/05/22 09:15:48;;;;;;;1.33;1.10;;;29.10;37.80;;;;;;5000106;28;20094;-87
2021/05/22 09:18:19;;;;;;;1.77;1.42;;;29.20;39.00;;;;;;4998859;28;20149;-87
2021/05/22 09:20:59;;;;;;;1.60;1.40;;;29.40;38.90;;;;;;4998764;28;20038;-88
2021/05/22 09:23:45;;;;;;;1.40;1.30;;;29.60;38.40;;;;;;4997878;28;20026;-87
2021/05/22 09:26:13;;;;;;;1.60;1.30;;;29.70;35.30;;;;;;4997969;28;20035;-88
2021/05/22 09:28:50;;;;;;;2.93;1.67;;;29.80;37.70;;;;;;4998523;28;20496;-87
2021/05/22 09:31:18;;;;;;;2.38;1.70;;;30.00;36.80;;;;;;4997636;28;20023;-86
2021/05/22 09:34:06;;;;;;;2.35;1.63;;;30.10;37.40;;;;;;5000835;28;20093;-87
2021/05/22 09:36:44;;;;;;;2.58;1.95;;;30.20;34.20;;;;;;5012725;28;20033;-88
2021/05/22 09:39:18;;;;;;;3.17;1.93;;;30.30;32.20;;;;;;4998951;28;20030;-86
2021/05/22 09:41:48;;;;;;;3.13;2.13;;;30.40;35.40;;;;;;4998272;28;20026;-88
2021/05/22 09:44:25;;;;;;;4.88;1.95;;;30.50;35.40;;;;;;5002066;28;20026;-88
2021/05/22 09:46:53;;;;;;;3.85;2.00;;;30.70;35.60;;;;;;4996245;28;20034;-87
2021/05/22 09:49:23;;;;;;;2.85;1.52;;;30.70;35.00;;;;;;4995773;28;20022;-88
2021/05/22 09:52:02;;;;;;;1.77;1.63;;;30.80;34.40;;;;;;4996312;28;20030;-87
2021/05/22 09:54:41;;;;;;;3.22;1.75;;;30.90;32.90;;;;;;4995720;28;20465;-87
2021/05/22 09:57:09;;;;;;;2.08;1.60;;;31.00;29.60;;;;;;4996015;28;20038;-86
2021/05/22 09:59:34;;;;;;;2.70;1.52;;;31.00;34.00;;;;;;4994336;28;20140;-87
2021/05/22 10:02:00;;;;;;;2.28;1.65;;;31.10;33.90;;;;;;4996406;28;20066;-85
2021/05/22 10:04:28;;;;;;;3.33;2.15;;;31.20;33.70;;;;;;4994647;28;20033;-86
2021/05/22 10:06:57;;;;;;;3.03;2.13;;;31.20;33.10;;;;;;4994618;28;20045;-87
2021/05/22 10:09:25;;;;;;;4.25;2.00;;;31.30;33.00;;;;;;4996070;28;20050;-87
2021/05/22 10:12:06;;;;;;;4.07;1.90;;;31.40;32.90;;;;;;4994289;28;20037;-86
2021/05/22 10:14:42;;;;;;;2.55;2.10;;;31.70;30.30;;;;;;4995831;28;20034;-87
2021/05/22 10:17:10;;;;;;;2.05;1.80;;;31.80;33.00;;;;;;4995327;28;20089;-86
2021/05/22 10:19:37;;;;;;;4.43;2.00;;;31.90;32.40;;;;;;4995665;28;20034;-87
2021/05/22 10:22:08;;;;;;;2.78;2.00;;;31.90;32.00;;;;;;4994672;28;20026;-87
2021/05/22 10:24:35;;;;;;;2.40;1.88;;;31.90;31.70;;;;;;4994603;28;20449;-86
2021/05/22 10:27:01;;;;;;;2.25;1.77;;;31.90;31.80;;;;;;4995502;28;20109;-88
2021/05/22 10:29:29;;;;;;;2.42;1.75;;;31.90;31.70;;;;;;4994992;28;20026;-85
2021/05/22 10:31:55;;;;;;;2.63;2.00;;;32.00;31.50;;;;;;4996146;28;20117;-88
2021/05/22 10:34:24;;;;;;;3.63;1.95;;;32.10;31.40;;;;;;4995607;28;20022;-86
2021/05/22 10:36:51;;;;;;;2.93;1.73;;;32.20;30.90;;;;;;4995547;28;20081;-85
2021/05/22 10:39:40;;;;;;;2.10;1.80;;;32.20;30.90;;;;;;4995231;28;20117;-87
2021/05/22 10:42:33;;;;;;;1.70;1.60;;;32.50;29.30;;;;;;4994214;28;20528;-86
2021/05/22 10:45:19;;;;;;;2.30;1.58;;;32.50;30.60;;;;;;4994826;28;20056;-86
2021/05/22 10:47:47;;;;;;;3.05;1.90;;;32.60;30.50;;;;;;4993635;28;20031;-86
2021/05/22 10:50:31;;;;;;;3.05;2.00;;;32.70;30.60;;;;;;4995049;28;20027;-86
2021/05/22 10:53:28;;;;;;;2.38;1.85;;;32.80;30.00;;;;;;4996508;28;20113;-85
2021/05/22 10:56:20;;;;;;;3.35;2.08;;;32.70;27.40;;;;;;4983114;28;20038;-88
2021/05/22 10:58:57;;;;;;;2.65;1.85;;;32.80;28.10;;;;;;4987772;28;20042;-87
2021/05/22 11:01:28;;;;;;;2.67;1.80;;;32.90;27.90;;;;;;4994551;28;20046;-87
2021/05/22 11:04:16;;;;;;;3.15;2.00;;;33.10;29.60;;;;;;4994951;28;20224;-87
2021/05/22 11:06:50;;;;;;;3.53;1.90;;;33.30;27.70;;;;;;4993571;28;20058;-86
2021/05/22 11:09:39;;;;;;;2.88;1.63;;;33.40;29.60;;;;;;4994324;28;20050;-86
2021/05/22 11:12:28;;;;;;;2.35;1.70;;;33.70;27.50;;;;;;4995239;28;20109;-85
2021/05/22 11:14:57;;;;;;;2.72;1.80;;;34.00;27.20;;;;;;4994658;28;20042;-86
2021/05/22 11:17:26;;;;;;;2.95;2.00;;;34.10;29.00;;;;;;4994018;28;20034;-86
2021/05/22 11:20:01;;;;;;;;;;;34.30;28.70;;;;;;4994334;28;20026;-85
2021/05/22 11:23:00;;;;;;;2.95;1.88;;;34.00;26.90;;;;;;4992541;28;19906;-86
2021/05/22 11:25:28;;;;;;;3.28;1.80;;;34.20;28.50;;;;;;4993711;28;20077;-84
2021/05/22 11:28:05;;;;;;;3.33;1.88;;;34.30;28.40;;;;;;4992817;28;20045;-87
2021/05/22 11:30:31;;;;;;;2.40;1.70;;;34.50;28.30;;;;;;4994273;28;20026;-86
2021/05/22 11:33:30;;;;;;;2.28;2.08;;;34.70;28.10;;;;;;4992604;28;20022;-87
2021/05/22 11:35:58;;;;;;;2.28;1.70;;;35.00;27.60;;;;;;4980998;28;20416;-86
2021/05/22 11:38:25;;;;;;;3.28;1.70;;;35.00;28.00;;;;;;4993992;28;20380;-87
2021/05/22 11:41:05;;;;;;;1.65;1.55;;;35.10;27.60;;;;;;4993964;28;20026;-86
2021/05/22 11:43:33;;;;;;;3.05;1.92;;;35.20;27.20;;;;;;4993591;28;20349;-87
2021/05/22 11:46:13;;;;;;;2.93;1.80;;;35.10;27.50;;;;;;4993881;28;20026;-85
2021/05/22 11:48:52;;;;;;;2.25;1.67;;;35.20;25.80;;;;;;4992338;28;20252;-86
2021/05/22 11:51:28;;;;;;;2.42;1.65;;;35.20;25.80;;;;;;4992478;28;20030;-88
2021/05/22 11:54:18;;;;;;;2.72;1.98;;;34.90;27.20;;;;;;4993798;28;20092;-86
2021/05/22 11:56:46;;;;;;;1.77;1.60;;;34.90;26.90;;;;;;4992911;28;20121;-87
2021/05/22 11:59:17;;;;;;;1.43;1.20;;;34.70;27.50;;;;;;4994110;28;20038;-86
2021/05/22 12:01:55;;;;;;;2.03;1.50;;;34.80;27.40;;;;;;4992168;28;20356;-84
2021/05/22 12:04:21;;;;;;;2.95;1.60;;;34.90;26.20;;;;;;4993720;28;20027;-86
2021/05/22 12:06:48;;;;;;;1.48;1.38;;;34.50;26.80;;;;;;4993559;28;20046;-86
2021/05/22 12:09:21;;;;;;;1.65;1.30;;;33.80;26.80;;;;;;4993275;28;20057;-86
2021/05/22 12:12:04;;;;;;;2.25;1.23;;;32.80;26.70;;;;;;5008866;28;20061;-89
2021/05/22 12:14:47;;;;;;;1.50;1.30;;;31.90;26.70;;;;;;4995853;28;20026;-86
2021/05/22 12:17:15;;;;;;;2.00;1.55;;;31.50;27.00;;;;;;4995953;28;20388;-87
2021/05/22 12:19:45;;;;;;;3.30;1.50;;;31.70;27.90;;;;;;4997533;28;20062;-87
2021/05/22 12:22:13;;;;;;;1.42;1.33;;;32.10;27.90;;;;;;4997495;28;20053;-85
2021/05/22 12:24:40;;;;;;;1.80;1.50;;;32.50;27.70;;;;;;4997070;28;20089;-87
2021/05/22 12:27:06;;;;;;;2.05;1.73;;;33.00;27.70;;;;;;4997402;28;20033;-86
2021/05/22 12:29:32;;;;;;;3.45;2.58;;;33.50;27.50;;;;;;4997256;28;20118;-86
2021/05/22 12:32:00;;;;;;;3.45;2.10;;;33.80;27.20;;;;;;4997060;28;20033;-85
2021/05/22 12:34:31;;;;;;;2.22;1.70;;;34.20;27.10;;;;;;4995831;28;20023;-85
2021/05/22 12:37:09;;;;;;;2.58;1.90;;;34.40;26.90;;;;;;4996248;28;20376;-86
2021/05/22 12:39:41;;;;;;;1.67;1.25;;;34.60;26.20;;;;;;4995467;28;20034;-86
2021/05/22 12:42:27;;;;;;;1.52;1.42;;;34.70;26.10;;;;;;4996234;28;20054;-86
2021/05/22 12:45:13;;;;;;;1.27;1.20;;;34.80;25.10;;;;;;4997212;28;20039;-86
2021/05/22 12:47:44;;;;;;;1.75;1.38;;;35.00;26.20;;;;;;4996236;28;20030;-84
2021/05/22 12:50:16;;;;;;;2.17;1.10;;;35.10;26.20;;;;;;4997070;28;20030;-85
2021/05/22 12:52:56;;;;;;;2.97;1.10;;;35.30;26.20;;;;;;4996166;28;20034;-86
2021/05/22 12:55:34;;;;;;;3.13;1.50;;;35.50;25.70;;;;;;4997819;28;20035;-85
2021/05/22 12:58:21;;;;;;;1.40;1.30;;;35.70;24.90;;;;;;4996879;28;20030;-85
2021/05/22 13:00:50;;;;;;;1.42;1.27;;;35.80;26.20;;;;;;4997268;28;20037;-86